Time;durP1;ratioP1;P1;durP2;ratioP2;P2;SDS_P1;SDS_P2;PMS_P1;PMS_P2;Temp;Humidity;BMP_temperature;BMP_pressure;BME280_temperature;BME280_humidity;BME280_pressure;Samples;Min_cycle;Max_cycle;Signal;HPM_P1;HPM_P2
2021/11/17 02:28:04;;;;;;;;;49.00;40.25;;;;;;;;5091604;28;11530;-79
2021/11/17 02:30:47;;;;;;;;;47.25;39.00;;;;;;;;5086491;28;11426;-80
2021/11/17 02:33:31;;;;;;;;;49.00;43.00;;;;;;;;5098335;28;11542;-80
2021/11/17 02:36:11;;;;;;;;;44.75;38.00;;;;;;;;5086922;28;11517;-80
2021/11/17 02:39:06;;;;;;;;;47.50;40.50;;;;;;;;5095775;28;11537;-78
2021/11/17 02:41:56;;;;;;;;;58.50;43.50;;;;;;;;5084361;28;11620;-81
2021/11/17 02:44:36;;;;;;;;;51.75;41.25;;;;;;;;5113578;27;11563;-80
2021/11/17 02:47:31;;;;;;;;;57.50;45.25;;;;;;;;5090707;28;12321;-81
2021/11/17 02:50:19;;;;;;;;;44.00;39.25;;;;;;;;5084775;28;11502;-79
2021/11/17 02:52:59;;;;;;;;;51.75;40.25;;;;;;;;5094956;28;11653;-79
2021/11/17 02:55:55;;;;;;;;;49.00;41.75;;;;;;;;5083778;28;11609;-79
2021/11/17 02:58:45;;;;;;;;;48.25;40.00;;;;;;;;5076043;28;12309;-81
2021/11/17 03:01:35;;;;;;;;;47.00;41.25;;;;;;;;5086043;27;11467;-81
2021/11/17 03:04:20;;;;;;;;;49.00;39.75;;;;;;;;5089671;28;11509;-80
2021/11/17 03:07:00;;;;;;;;;51.00;42.50;;;;;;;;5089983;28;12282;-80
2021/11/17 03:09:43;;;;;;;;;43.00;39.25;;;;;;;;5089724;28;11577;-79
2021/11/17 03:12:33;;;;;;;;;57.50;36.00;;;;;;;;5094199;28;11523;-80
2021/11/17 03:15:34;;;;;;;;;39.00;37.50;;;;;;;;5095419;28;11553;-80
2021/11/17 03:18:24;;;;;;;;;44.00;39.00;;;;;;;;5089871;28;11525;-79
2021/11/17 03:21:23;;;;;;;;;38.75;32.50;;;;;;;;5079784;28;11526;-80
2021/11/17 03:24:03;;;;;;;;;49.00;35.75;;;;;;;;5089627;28;11515;-81
2021/11/17 03:26:54;;;;;;;;;39.75;37.25;;;;;;;;5093429;28;11515;-81
2021/11/17 03:29:43;;;;;;;;;40.25;37.50;;;;;;;;5083873;28;13050;-80
2021/11/17 03:32:31;;;;;;;;;43.50;33.50;;;;;;;;5080190;28;11485;-78
2021/11/17 03:35:20;;;;;;;;;23.75;22.50;;;;;;;;5082678;28;11590;-80
2021/11/17 03:38:14;;;;;;;;;48.75;38.25;;;;;;;;5083051;28;11641;-80
2021/11/17 03:41:07;;;;;;;;;41.75;37.25;;;;;;;;5078683;28;11562;-80
2021/11/17 03:44:15;;;;;;;;;42.00;37.00;;;;;;;;5083389;28;11505;-80
2021/11/17 03:47:08;;;;;;;;;42.50;37.75;;;;;;;;5088846;28;12322;-80
2021/11/17 03:49:50;;;;;;;;;42.75;33.25;;;;;;;;5078274;28;11633;-81
2021/11/17 03:52:29;;;;;;;;;45.25;40.25;;;;;;;;5095996;28;11270;-78
2021/11/17 03:55:18;;;;;;;;;48.25;36.25;;;;;;;;5084622;28;11527;-79
2021/11/17 03:57:58;;;;;;;;;55.25;41.25;;;;;;;;5086919;28;11594;-79
2021/11/17 04:00:52;;;;;;;;;41.75;30.50;;;;;;;;5084342;28;11561;-80
2021/11/17 04:03:39;;;;;;;;;49.00;38.25;;;;;;;;5094364;28;11521;-79
2021/11/17 04:06:21;;;;;;;;;59.50;43.00;;;;;;;;5087875;28;11498;-80
2021/11/17 04:09:09;;;;;;;;;51.25;37.25;;;;;;;;5080495;28;11539;-80
2021/11/17 04:11:50;;;;;;;;;64.25;48.25;;;;;;;;5090752;28;11667;-80
2021/11/17 04:14:30;;;;;;;;;54.75;38.00;;;;;;;;5087152;28;11646;-80
2021/11/17 04:17:16;;;;;;;;;46.75;40.25;;;;;;;;5071132;28;11563;-80
2021/11/17 04:19:57;;;;;;;;;46.75;38.25;;;;;;;;5081824;28;11541;-79
2021/11/17 04:22:42;;;;;;;;;45.25;33.50;;;;;;;;5088877;28;11551;-80
2021/11/17 04:25:35;;;;;;;;;53.75;40.50;;;;;;;;5084716;28;11537;-79
2021/11/17 04:28:18;;;;;;;;;53.75;41.75;;;;;;;;5085931;28;11633;-79
2021/11/17 04:31:10;;;;;;;;;60.00;43.75;;;;;;;;5089419;28;11513;-81
2021/11/17 04:34:17;;;;;;;;;54.75;42.50;;;;;;;;5082314;28;11524;-79
2021/11/17 04:37:08;;;;;;;;;53.25;42.75;;;;;;;;5091822;28;11511;-80
2021/11/17 04:40:12;;;;;;;;;57.50;41.25;;;;;;;;5087271;28;11679;-80
2021/11/17 04:43:12;;;;;;;;;52.75;41.50;;;;;;;;5080615;28;11561;-80
2021/11/17 04:45:52;;;;;;;;;53.00;41.25;;;;;;;;5063427;28;11676;-80
2021/11/17 04:48:36;;;;;;;;;42.25;38.75;;;;;;;;5095081;28;11731;-81
2021/11/17 04:51:27;;;;;;;;;46.00;39.50;;;;;;;;5070952;28;11537;-81
2021/11/17 04:54:13;;;;;;;;;48.00;41.50;;;;;;;;5090711;28;12219;-79
2021/11/17 04:56:53;;;;;;;;;54.50;44.50;;;;;;;;5096279;28;11501;-79
2021/11/17 04:59:36;;;;;;;;;39.75;33.25;;;;;;;;5089945;28;11528;-80
2021/11/17 05:02:28;;;;;;;;;51.75;40.00;;;;;;;;5077897;28;11501;-81
2021/11/17 05:05:10;;;;;;;;;49.75;37.50;;;;;;;;5085830;28;11511;-81
2021/11/17 05:07:46;;;;;;;;;49.50;39.75;;;;;;;;5082463;28;11214;-78
2021/11/17 05:10:27;;;;;;;;;44.25;39.00;;;;;;;;5082421;28;11480;-80
2021/11/17 05:13:06;;;;;;;;;42.75;38.75;;;;;;;;5088535;28;11142;-78
2021/11/17 05:15:49;;;;;;;;;40.00;34.75;;;;;;;;5097043;28;11172;-78
2021/11/17 05:18:25;;;;;;;;;36.00;28.00;;;;;;;;5089308;28;11324;-79
2021/11/17 05:21:06;;;;;;;;;39.00;35.00;;;;;;;;5088142;28;11214;-77
2021/11/17 05:23:46;;;;;;;;;42.50;38.75;;;;;;;;5094359;28;11225;-78
2021/11/17 05:26:27;;;;;;;;;51.25;40.00;;;;;;;;5081035;28;11153;-77
2021/11/17 05:29:14;;;;;;;;;43.00;36.25;;;;;;;;5080033;28;11331;-77
2021/11/17 05:31:54;;;;;;;;;47.25;40.25;;;;;;;;5083110;28;10990;-77
2021/11/17 05:34:45;;;;;;;;;38.00;34.00;;;;;;;;5079170;28;11085;-78
2021/11/17 05:37:23;;;;;;;;;50.00;41.25;;;;;;;;5085176;28;11966;-79
2021/11/17 05:40:03;;;;;;;;;41.00;31.00;;;;;;;;5083560;28;11038;-77
2021/11/17 05:42:49;;;;;;;;;43.25;37.50;;;;;;;;5079692;28;11234;-78
2021/11/17 05:45:30;;;;;;;;;49.00;36.00;;;;;;;;5089093;28;11231;-76
2021/11/17 05:48:07;;;;;;;;;46.00;34.75;;;;;;;;5085574;28;11161;-75
2021/11/17 05:50:51;;;;;;;;;42.00;34.25;;;;;;;;5087182;28;11746;-76
2021/11/17 05:53:30;;;;;;;;;46.75;38.00;;;;;;;;5067771;28;11086;-77
2021/11/17 05:56:12;;;;;;;;;46.50;37.50;;;;;;;;5084449;28;10934;-76
2021/11/17 05:58:54;;;;;;;;;52.25;39.50;;;;;;;;5082674;28;10829;-78
2021/11/17 06:01:42;;;;;;;;;43.75;37.25;;;;;;;;5083760;28;11035;-77
2021/11/17 06:04:11;;;;;;;;;42.75;35.75;;;;;;;;5086852;28;11716;-84
2021/11/17 06:06:39;;;;;;;;;32.25;27.25;;;;;;;;5086391;28;10789;-85
2021/11/17 06:09:06;;;;;;;;;33.50;29.50;;;;;;;;5085208;28;11980;-73
2021/11/17 06:11:38;;;;;;;;;37.50;32.50;;;;;;;;5089083;28;10899;-74
2021/11/17 06:14:08;;;;;;;;;33.75;31.75;;;;;;;;5087832;28;11044;-73
2021/11/17 06:16:39;;;;;;;;;42.75;35.50;;;;;;;;5084768;28;10741;-72
2021/11/17 06:19:06;;;;;;;;;35.00;30.50;;;;;;;;5082844;28;11036;-76
2021/11/17 06:21:34;;;;;;;;;41.25;34.00;;;;;;;;5083001;28;12091;-75
2021/11/17 06:24:05;;;;;;;;;41.00;37.50;;;;;;;;5085291;28;11010;-75
2021/11/17 06:26:38;;;;;;;;;43.00;37.75;;;;;;;;5086394;28;11021;-74
2021/11/17 06:29:07;;;;;;;;;45.50;36.25;;;;;;;;5082732;28;10938;-78
2021/11/17 06:31:39;;;;;;;;;39.50;31.25;;;;;;;;5080916;28;10852;-75
2021/11/17 06:34:24;;;;;;;;;41.25;37.00;;;;;;;;5077457;28;11723;-76
2021/11/17 06:36:52;;;;;;;;;54.75;41.75;;;;;;;;5081494;28;10930;-74
2021/11/17 06:39:19;;;;;;;;;45.25;32.75;;;;;;;;5090701;28;11163;-73
2021/11/17 06:41:51;;;;;;;;;36.75;31.75;;;;;;;;5086689;28;10906;-75
2021/11/17 06:44:18;;;;;;;;;35.25;31.50;;;;;;;;5083321;28;10831;-72
2021/11/17 06:46:46;;;;;;;;;49.75;40.50;;;;;;;;5089031;28;10857;-73
2021/11/17 06:49:13;;;;;;;;;39.25;33.00;;;;;;;;5084743;28;11234;-74
2021/11/17 06:51:40;;;;;;;;;42.50;39.00;;;;;;;;5082593;28;10863;-71
2021/11/17 06:54:08;;;;;;;;;41.00;35.25;;;;;;;;5082746;28;11014;-71
2021/11/17 06:56:35;;;;;;;;;44.00;37.00;;;;;;;;5079908;28;12021;-72
2021/11/17 06:59:04;;;;;;;;;31.75;22.25;;;;;;;;5081072;28;10728;-71
2021/11/17 07:01:31;;;;;;;;;39.75;33.00;;;;;;;;5079309;28;11489;-72
2021/11/17 07:03:59;;;;;;;;;32.50;25.75;;;;;;;;5084094;28;10728;-72
2021/11/17 07:06:26;;;;;;;;;42.00;33.25;;;;;;;;5083243;28;10817;-71
2021/11/17 07:08:54;;;;;;;;;32.00;29.75;;;;;;;;5098645;28;10705;-71
2021/11/17 07:11:22;;;;;;;;;35.50;33.25;;;;;;;;5092467;28;10852;-72
2021/11/17 07:13:49;;;;;;;;;42.75;36.25;;;;;;;;5084416;28;10739;-71
2021/11/17 07:16:18;;;;;;;;;46.25;35.50;;;;;;;;5084502;28;10983;-72
2021/11/17 07:18:46;;;;;;;;;40.75;36.50;;;;;;;;5084613;28;10838;-75
2021/11/17 07:21:13;;;;;;;;;42.50;37.50;;;;;;;;5080880;28;10972;-75
2021/11/17 07:23:41;;;;;;;;;32.50;29.50;;;;;;;;5080413;28;11055;-75
2021/11/17 07:26:08;;;;;;;;;35.50;35.00;;;;;;;;5093567;28;10989;-74
2021/11/17 07:28:36;;;;;;;;;49.50;38.25;;;;;;;;5082707;28;10807;-74
2021/11/17 07:31:04;;;;;;;;;41.25;34.75;;;;;;;;5087956;28;10964;-72
2021/11/17 07:33:33;;;;;;;;;42.00;37.00;;;;;;;;5079221;28;11858;-71
2021/11/17 07:36:00;;;;;;;;;47.00;38.50;;;;;;;;5088768;28;11122;-72
2021/11/17 07:38:27;;;;;;;;;43.25;38.75;;;;;;;;5118647;27;10987;-74
2021/11/17 07:40:55;;;;;;;;;58.50;42.00;;;;;;;;5071245;28;11807;-74
2021/11/17 07:43:25;;;;;;;;;46.00;40.00;;;;;;;;5085163;28;11208;-75
2021/11/17 07:45:54;;;;;;;;;42.75;35.00;;;;;;;;5079946;28;11209;-74
2021/11/17 07:48:25;;;;;;;;;46.50;37.50;;;;;;;;5082739;28;11057;-74
2021/11/17 07:50:55;;;;;;;;;40.25;36.25;;;;;;;;5087233;28;11135;-73
2021/11/17 07:53:24;;;;;;;;;52.00;42.25;;;;;;;;5083590;28;11010;-73
2021/11/17 07:55:53;;;;;;;;;46.25;38.75;;;;;;;;5089150;28;11129;-76
2021/11/17 07:58:22;;;;;;;;;46.25;39.00;;;;;;;;5082499;28;11196;-74
2021/11/17 08:00:51;;;;;;;;;47.25;40.75;;;;;;;;5082754;27;11457;-74
2021/11/17 08:03:19;;;;;;;;;53.25;41.50;;;;;;;;5081766;28;11181;-76
2021/11/17 08:05:48;;;;;;;;;38.50;31.00;;;;;;;;5079991;28;11075;-78
2021/11/17 08:08:19;;;;;;;;;40.50;38.25;;;;;;;;5100300;28;11247;-76
2021/11/17 08:10:47;;;;;;;;;50.00;42.50;;;;;;;;5086662;28;11663;-78
2021/11/17 08:13:14;;;;;;;;;44.25;37.25;;;;;;;;5090849;28;11150;-79
2021/11/17 08:15:43;;;;;;;;;41.75;38.25;;;;;;;;5088085;28;11185;-79
2021/11/17 08:18:11;;;;;;;;;46.25;38.75;;;;;;;;5086125;28;11110;-78
2021/11/17 08:20:38;;;;;;;;;49.00;40.50;;;;;;;;5110528;27;11170;-75
2021/11/17 08:23:07;;;;;;;;;48.25;39.25;;;;;;;;5081829;28;11170;-76
2021/11/17 08:25:38;;;;;;;;;46.25;36.25;;;;;;;;5081349;28;11083;-77
2021/11/17 08:28:07;;;;;;;;;42.25;38.00;;;;;;;;5071848;28;11159;-76
2021/11/17 08:30:35;;;;;;;;;39.25;36.75;;;;;;;;5082749;28;10936;-76
2021/11/17 08:33:03;;;;;;;;;45.75;38.00;;;;;;;;5100987;28;11213;-76
2021/11/17 08:35:31;;;;;;;;;41.75;35.75;;;;;;;;5095844;28;11173;-76
2021/11/17 08:37:59;;;;;;;;;44.75;39.25;;;;;;;;5086888;28;10938;-76
2021/11/17 08:40:28;;;;;;;;;42.25;35.50;;;;;;;;5084957;28;10929;-75
2021/11/17 08:42:57;;;;;;;;;41.25;36.25;;;;;;;;5080392;28;11015;-76
2021/11/17 08:45:26;;;;;;;;;42.75;35.00;;;;;;;;5099208;28;11070;-76
2021/11/17 08:47:54;;;;;;;;;41.25;35.00;;;;;;;;5104768;28;10988;-76
2021/11/17 08:50:24;;;;;;;;;38.75;35.25;;;;;;;;5086968;28;11127;-76
2021/11/17 08:52:52;;;;;;;;;45.25;34.50;;;;;;;;5084191;28;10985;-76
2021/11/17 08:55:19;;;;;;;;;41.75;36.25;;;;;;;;5082847;28;11102;-76
2021/11/17 08:57:48;;;;;;;;;39.25;36.25;;;;;;;;5083070;28;10929;-76
2021/11/17 09:00:19;;;;;;;;;39.50;35.25;;;;;;;;5085410;28;11035;-76
2021/11/17 09:02:47;;;;;;;;;42.25;31.75;;;;;;;;5099062;28;11118;-76
2021/11/17 09:05:16;;;;;;;;;36.75;35.75;;;;;;;;5104205;28;10911;-76
2021/11/17 09:07:45;;;;;;;;;38.00;29.25;;;;;;;;5103446;28;11101;-76
2021/11/17 09:10:14;;;;;;;;;39.75;34.50;;;;;;;;5104597;28;11008;-76
2021/11/17 09:12:41;;;;;;;;;37.25;29.00;;;;;;;;5103845;28;10881;-76
2021/11/17 09:15:12;;;;;;;;;43.75;31.75;;;;;;;;5086360;28;11174;-76
2021/11/17 09:17:42;;;;;;;;;35.50;33.00;;;;;;;;5083718;28;11299;-75
2021/11/17 09:20:11;;;;;;;;;42.75;36.25;;;;;;;;5087849;28;11059;-75
2021/11/17 09:22:39;;;;;;;;;41.75;35.50;;;;;;;;5093250;28;11299;-75
2021/11/17 09:25:08;;;;;;;;;39.50;37.00;;;;;;;;5095308;28;11344;-74
2021/11/17 09:27:37;;;;;;;;;38.00;36.25;;;;;;;;5087821;28;11248;-75
2021/11/17 09:30:06;;;;;;;;;45.75;38.50;;;;;;;;5088865;28;11157;-75
2021/11/17 09:32:33;;;;;;;;;39.75;37.00;;;;;;;;5087940;28;11119;-74
2021/11/17 09:35:02;;;;;;;;;39.25;34.50;;;;;;;;5091679;28;11890;-75
2021/11/17 09:37:29;;;;;;;;;40.00;36.25;;;;;;;;5096238;28;11962;-75
2021/11/17 09:39:57;;;;;;;;;50.00;38.75;;;;;;;;5087785;28;12037;-75
2021/11/17 09:42:25;;;;;;;;;36.75;35.00;;;;;;;;5087178;28;11132;-75
2021/11/17 09:44:54;;;;;;;;;41.50;35.00;;;;;;;;5086693;28;10655;-75
2021/11/17 09:47:23;;;;;;;;;26.25;24.50;;;;;;;;5086510;28;10745;-75
2021/11/17 09:49:54;;;;;;;;;35.75;27.25;;;;;;;;5086600;28;10502;-75
2021/11/17 09:52:25;;;;;;;;;38.75;29.75;;;;;;;;5085577;28;10356;-75
2021/11/17 09:54:56;;;;;;;;;39.75;31.50;;;;;;;;5085964;28;10249;-75
2021/11/17 09:57:27;;;;;;;;;21.25;20.25;;;;;;;;5078290;28;10256;-75
2021/11/17 09:59:58;;;;;;;;;40.75;31.25;;;;;;;;5086397;28;9874;-75
2021/11/17 10:02:30;;;;;;;;;27.50;27.25;;;;;;;;5098882;28;9994;-75
2021/11/17 10:05:01;;;;;;;;;34.50;30.00;;;;;;;;5106725;28;10837;-75
2021/11/17 10:13:18;;;;;;;;;34.50;30.75;;;;;;;;5099496;28;10062;-75
2021/11/17 10:15:50;;;;;;;;;35.00;29.75;;;;;;;;5087087;28;9813;-75
2021/11/17 10:18:32;;;;;;;;;34.25;30.25;;;;;;;;5085612;28;9915;-75
2021/11/17 10:21:04;;;;;;;;;35.25;30.25;;;;;;;;5107181;28;9906;-75
2021/11/17 10:23:36;;;;;;;;;48.25;38.00;;;;;;;;5093189;28;9883;-75
2021/11/17 10:26:14;;;;;;;;;35.00;32.50;;;;;;;;5102467;28;10048;-75
2021/11/17 10:28:52;;;;;;;;;30.50;26.75;;;;;;;;5103584;28;9914;-75
2021/11/17 10:31:24;;;;;;;;;28.75;25.50;;;;;;;;5085702;28;9790;-75
2021/11/17 10:34:11;;;;;;;;;38.50;31.50;;;;;;;;5086472;28;9824;-75
2021/11/17 10:36:51;;;;;;;;;30.75;26.25;;;;;;;;5100310;28;9888;-75
2021/11/17 10:39:21;;;;;;;;;34.50;30.50;;;;;;;;5092407;28;10562;-75
2021/11/17 10:42:03;;;;;;;;;33.25;30.25;;;;;;;;5091226;28;9752;-75
2021/11/17 10:44:36;;;;;;;;;29.00;28.00;;;;;;;;5096470;28;9556;-75
2021/11/17 10:47:15;;;;;;;;;36.00;33.67;;;;;;;;5080287;28;9468;-76
2021/11/17 10:49:44;;;;;;;;;36.67;31.67;;;;;;;;5106999;28;9455;-75
2021/11/17 10:52:13;;;;;;;;;28.33;28.33;;;;;;;;5091998;28;9320;-75
2021/11/17 10:54:49;;;;;;;;;37.67;29.67;;;;;;;;5097300;28;9180;-75
2021/11/17 10:57:20;;;;;;;;;36.33;32.67;;;;;;;;5085811;28;9009;-75
2021/11/17 10:59:47;;;;;;;;;36.00;31.33;;;;;;;;5095933;28;9079;-75
2021/11/17 11:02:16;;;;;;;;;29.33;29.33;;;;;;;;5096308;27;9254;-75
2021/11/17 11:04:46;;;;;;;;;31.00;30.33;;;;;;;;5095039;28;9106;-75
2021/11/17 11:07:18;;;;;;;;;39.67;31.33;;;;;;;;5087899;28;9037;-75
2021/11/17 11:09:52;;;;;;;;;30.33;29.67;;;;;;;;5086053;28;9155;-76
2021/11/17 11:12:19;;;;;;;;;34.67;31.33;;;;;;;;5086943;28;8961;-76
2021/11/17 11:14:49;;;;;;;;;30.67;26.67;;;;;;;;5084297;28;9423;-75
2021/11/17 11:17:30;;;;;;;;;28.67;26.33;;;;;;;;5094817;28;9025;-76
2021/11/17 11:20:32;;;;;;;;;28.33;26.67;;;;;;;;5083106;28;8971;-76
2021/11/17 11:23:16;;;;;;;;;27.67;26.00;;;;;;;;5082096;28;8951;-76
2021/11/17 11:25:52;;;;;;;;;19.50;19.50;;;;;;;;5086071;28;8973;-76
2021/11/17 11:28:30;;;;;;;;;24.50;23.00;;;;;;;;5085999;28;8875;-76
2021/11/17 11:31:35;;;;;;;;;20.50;17.25;;;;;;;;5074961;28;9562;-76
2021/11/17 11:34:37;;;;;;;;;17.00;15.75;;;;;;;;5091691;28;8956;-76
2021/11/17 11:37:07;;;;;;;;;16.25;14.50;;;;;;;;5102943;28;8853;-76
2021/11/17 11:39:46;;;;;;;;;17.00;17.00;;;;;;;;5089849;28;8892;-76
2021/11/17 11:42:50;;;;;;;;;15.00;14.75;;;;;;;;5085071;28;9481;-76
2021/11/17 11:45:39;;;;;;;;;20.50;18.00;;;;;;;;5084561;28;8970;-76
2021/11/17 11:48:08;;;;;;;;;24.25;22.00;;;;;;;;5084446;28;8904;-76
2021/11/17 11:51:02;;;;;;;;;17.50;17.00;;;;;;;;5095371;28;9023;-76
2021/11/17 11:54:06;;;;;;;;;20.25;19.50;;;;;;;;5072858;28;8906;-80
2021/11/17 11:56:50;;;;;;;;;23.00;19.25;;;;;;;;5073751;28;8851;-76
2021/11/17 11:59:23;;;;;;;;;13.50;13.50;;;;;;;;5092651;28;8869;-77
2021/11/17 12:01:58;;;;;;;;;15.25;13.25;;;;;;;;5085594;28;8816;-77
2021/11/17 12:04:26;;;;;;;;;15.75;14.50;;;;;;;;5086885;28;8850;-77
2021/11/17 12:06:57;;;;;;;;;13.25;13.25;;;;;;;;5095145;28;8836;-77
2021/11/17 12:09:32;;;;;;;;;12.00;12.00;;;;;;;;5087823;28;9589;-77
2021/11/17 12:12:01;;;;;;;;;9.25;9.25;;;;;;;;5098128;28;8921;-78
2021/11/17 12:14:35;;;;;;;;;11.25;11.00;;;;;;;;5084649;28;8921;-76
2021/11/17 12:17:04;;;;;;;;;10.00;8.75;;;;;;;;5088628;28;8868;-76
2021/11/17 12:19:45;;;;;;;;;11.00;11.00;;;;;;;;5092157;28;10021;-76
2021/11/17 12:22:14;;;;;;;;;10.00;10.00;;;;;;;;5097987;28;9677;-78
2021/11/17 12:24:44;;;;;;;;;17.00;13.50;;;;;;;;5094965;28;8837;-76
2021/11/17 12:27:13;;;;;;;;;12.00;11.00;;;;;;;;5104103;28;8992;-78
2021/11/17 12:30:01;;;;;;;;;10.75;10.75;;;;;;;;5096854;28;8873;-76
2021/11/17 12:32:34;;;;;;;;;9.00;8.00;;;;;;;;5082566;28;8824;-76
2021/11/17 12:35:10;;;;;;;;;8.50;8.50;;;;;;;;5084428;28;8876;-77
2021/11/17 12:37:40;;;;;;;;;10.50;8.75;;;;;;;;5086980;27;8852;-75
2021/11/17 12:40:10;;;;;;;;;7.50;7.50;;;;;;;;5084612;28;8864;-77
2021/11/17 12:42:39;;;;;;;;;8.00;6.75;;;;;;;;5086086;28;8846;-75
2021/11/17 12:45:22;;;;;;;;;8.00;5.00;;;;;;;;5082392;28;8899;-76
2021/11/17 12:47:54;;;;;;;;;3.25;3.25;;;;;;;;5083771;28;8862;-76
2021/11/17 12:50:26;;;;;;;;;4.00;3.00;;;;;;;;5085453;28;8887;-77
2021/11/17 12:52:57;;;;;;;;;2.00;2.00;;;;;;;;5083291;28;8919;-76
2021/11/17 12:55:29;;;;;;;;;1.25;1.25;;;;;;;;5094621;28;8898;-79
2021/11/17 12:58:01;;;;;;;;;1.00;1.00;;;;;;;;5090049;28;8883;-78
2021/11/17 13:00:56;;;;;;;;;1.00;1.00;;;;;;;;5103770;27;9627;-78
2021/11/17 13:03:32;;;;;;;;;1.00;1.00;;;;;;;;5019328;28;8865;-76
2021/11/17 13:06:07;;;;;;;;;3.00;3.00;;;;;;;;5096187;28;8869;-78
2021/11/17 13:08:36;;;;;;;;;4.00;2.75;;;;;;;;5084102;28;8844;-81
2021/11/17 13:11:11;;;;;;;;;2.00;2.00;;;;;;;;5088058;28;8939;-76
2021/11/17 13:13:46;;;;;;;;;3.50;1.00;;;;;;;;5083986;28;8859;-77
2021/11/17 13:16:16;;;;;;;;;1.67;1.67;;;;;;;;5089437;28;9680;-76
2021/11/17 13:18:56;;;;;;;;;1.75;1.25;;;;;;;;5087839;28;8871;-76
2021/11/17 13:21:31;;;;;;;;;1.00;1.00;;;;;;;;5079003;28;9984;-76
2021/11/17 13:24:26;;;;;;;;;3.00;1.00;;;;;;;;5099724;28;8882;-75
2021/11/17 13:27:10;;;;;;;;;5.00;3.00;;;;;;;;5092798;28;8848;-76
2021/11/17 13:29:49;;;;;;;;;4.50;3.00;;;;;;;;5079538;28;8925;-76
2021/11/17 13:32:28;;;;;;;;;1.75;1.75;;;;;;;;5085273;28;8805;-76
2021/11/17 13:34:58;;;;;;;;;2.25;2.25;;;;;;;;5100521;28;8906;-76
2021/11/17 13:37:35;;;;;;;;;2.00;2.00;;;;;;;;5082614;28;8856;-76
2021/11/17 13:40:07;;;;;;;;;1.25;1.25;;;;;;;;5082647;28;8879;-76
2021/11/17 13:42:35;;;;;;;;;2.00;2.00;;;;;;;;5083732;28;8844;-77
2021/11/17 13:45:05;;;;;;;;;1.75;0.50;;;;;;;;5088558;28;8849;-76
2021/11/17 13:47:34;;;;;;;;;0.50;0.50;;;;;;;;5092573;28;8864;-76
2021/11/17 13:50:02;;;;;;;;;2.00;2.00;;;;;;;;5088881;28;8873;-76
2021/11/17 13:52:32;;;;;;;;;2.50;1.00;;;;;;;;5094046;28;9625;-76
2021/11/17 13:55:00;;;;;;;;;1.00;1.00;;;;;;;;5076406;28;8932;-76
2021/11/17 13:57:28;;;;;;;;;0.25;0.25;;;;;;;;5104284;28;8907;-76
2021/11/17 13:59:56;;;;;;;;;0.00;0.00;;;;;;;;5088891;28;8848;-76
2021/11/17 14:02:24;;;;;;;;;1.00;1.00;;;;;;;;5083748;28;8806;-76
2021/11/17 14:04:53;;;;;;;;;1.00;1.00;;;;;;;;5103986;28;8903;-76
2021/11/17 14:07:22;;;;;;;;;0.00;0.00;;;;;;;;5118520;27;8916;-75
2021/11/17 14:09:49;;;;;;;;;2.00;1.00;;;;;;;;5107676;28;8938;-76
2021/11/17 14:12:17;;;;;;;;;0.50;0.50;;;;;;;;5098128;28;8899;-76
2021/11/17 14:14:45;;;;;;;;;0.00;0.00;;;;;;;;5089757;28;8856;-75
2021/11/17 14:17:12;;;;;;;;;1.75;1.75;;;;;;;;5085317;28;8882;-78
2021/11/17 14:19:40;;;;;;;;;3.50;2.00;;;;;;;;5088087;28;8878;-78
2021/11/17 14:22:09;;;;;;;;;1.25;1.25;;;;;;;;5089399;28;8859;-79
2021/11/17 14:24:36;;;;;;;;;13.00;12.25;;;;;;;;5090091;28;8859;-76
2021/11/17 14:27:09;;;;;;;;;24.75;24.25;;;;;;;;5090307;28;8840;-76
2021/11/17 14:29:41;;;;;;;;;21.75;21.75;;;;;;;;5074590;28;8856;-76
2021/11/17 14:32:12;;;;;;;;;7.75;5.25;;;;;;;;5079635;28;8842;-77
2021/11/17 14:34:39;;;;;;;;;3.00;3.00;;;;;;;;5089374;28;8864;-77
2021/11/17 14:37:09;;;;;;;;;22.50;22.00;;;;;;;;5087544;28;8868;-77
2021/11/17 14:39:40;;;;;;;;;1.00;0.75;;;;;;;;5087744;28;8989;-76
2021/11/17 14:42:09;;;;;;;;;1.25;1.25;;;;;;;;5086537;28;8973;-76
2021/11/17 14:44:37;;;;;;;;;1.25;1.25;;;;;;;;5088767;28;9034;-76
2021/11/17 14:47:05;;;;;;;;;3.00;3.00;;;;;;;;5094877;28;8892;-76
2021/11/17 14:49:33;;;;;;;;;1.50;1.50;;;;;;;;5089202;28;8864;-77
2021/11/17 14:52:01;;;;;;;;;2.00;2.00;;;;;;;;5082315;28;8988;-77
2021/11/17 14:54:30;;;;;;;;;5.00;5.00;;;;;;;;5082933;28;8990;-76
2021/11/17 14:56:58;;;;;;;;;4.75;2.00;;;;;;;;5094286;28;8907;-77
2021/11/17 14:59:25;;;;;;;;;1.75;1.75;;;;;;;;5097230;27;8868;-76
2021/11/17 15:01:52;;;;;;;;;1.00;1.00;;;;;;;;5082435;28;8882;-76
2021/11/17 15:04:20;;;;;;;;;3.00;1.50;;;;;;;;5070582;28;8869;-77
2021/11/17 15:06:47;;;;;;;;;1.00;1.00;;;;;;;;5087046;28;8867;-77
2021/11/17 15:09:15;;;;;;;;;1.00;1.00;;;;;;;;5084506;28;8880;-76
2021/11/17 15:12:02;;;;;;;;;2.00;2.00;;;;;;;;5081178;28;8880;-76
2021/11/17 15:14:31;;;;;;;;;1.00;1.00;;;;;;;;5080695;28;8982;-76
2021/11/17 15:16:59;;;;;;;;;1.75;1.75;;;;;;;;5096147;28;8911;-76
2021/11/17 15:19:26;;;;;;;;;1.25;1.25;;;;;;;;5083252;28;8883;-75
2021/11/17 15:21:55;;;;;;;;;2.00;1.00;;;;;;;;5081350;28;8888;-80
2021/11/17 15:24:23;;;;;;;;;1.00;1.00;;;;;;;;5084740;28;8856;-77
2021/11/17 15:26:54;;;;;;;;;2.00;2.00;;;;;;;;5086511;28;8893;-77
2021/11/17 15:29:22;;;;;;;;;1.25;1.25;;;;;;;;5079882;28;9434;-81
2021/11/17 15:31:50;;;;;;;;;0.00;0.00;;;;;;;;5083238;27;8823;-77
2021/11/17 15:34:17;;;;;;;;;1.00;1.00;;;;;;;;5080523;28;8863;-76
2021/11/17 15:36:45;;;;;;;;;1.00;1.00;;;;;;;;5085485;28;8974;-76
2021/11/17 15:39:13;;;;;;;;;2.00;2.00;;;;;;;;5080977;28;8872;-74
2021/11/17 15:41:41;;;;;;;;;2.25;2.25;;;;;;;;5068188;28;8860;-75
2021/11/17 15:44:10;;;;;;;;;3.00;1.50;;;;;;;;5083145;28;8977;-75
2021/11/17 15:46:39;;;;;;;;;1.00;1.00;;;;;;;;5086275;28;8867;-76
2021/11/17 15:49:07;;;;;;;;;1.75;1.75;;;;;;;;5094409;28;8849;-77
2021/11/17 15:51:37;;;;;;;;;1.75;1.75;;;;;;;;5091375;28;8899;-74
2021/11/17 15:54:05;;;;;;;;;2.75;2.75;;;;;;;;5084451;28;8879;-74
2021/11/17 15:56:35;;;;;;;;;1.50;1.50;;;;;;;;5081849;28;8875;-74
2021/11/17 15:59:03;;;;;;;;;2.50;2.50;;;;;;;;5080213;28;8877;-72
2021/11/17 16:01:32;;;;;;;;;3.25;3.25;;;;;;;;5079326;28;8844;-72
2021/11/17 16:03:59;;;;;;;;;3.00;2.00;;;;;;;;5081101;28;8896;-72
2021/11/17 16:06:31;;;;;;;;;4.00;4.00;;;;;;;;5081170;28;8850;-73
2021/11/17 16:08:59;;;;;;;;;3.00;3.00;;;;;;;;5078866;28;9003;-72
2021/11/17 16:11:26;;;;;;;;;2.33;2.33;;;;;;;;5078958;28;8951;-80
2021/11/17 16:13:54;;;;;;;;;2.67;2.67;;;;;;;;5081586;28;9917;-81
2021/11/17 16:16:25;;;;;;;;;4.00;3.00;;;;;;;;5082684;28;9240;-83
2021/11/17 16:18:54;;;;;;;;;2.33;1.00;;;;;;;;5082053;28;9165;-78
2021/11/17 16:21:22;;;;;;;;;5.33;2.00;;;;;;;;5080651;28;9398;-79
2021/11/17 16:26:36;;;;;;;;;4.00;2.00;;;;;;;;5080678;28;9291;-87
2021/11/17 16:29:05;;;;;;;;;2.00;2.00;;;;;;;;5084919;28;9392;-83
2021/11/17 16:31:36;;;;;;;;;4.00;2.33;;;;;;;;5077802;28;9288;-79
2021/11/17 16:34:05;;;;;;;;;2.00;2.00;;;;;;;;5078710;28;9481;-79
2021/11/17 16:36:35;;;;;;;;;2.25;2.25;;;;;;;;5079100;28;9388;-81
2021/11/17 16:39:03;;;;;;;;;1.75;1.75;;;;;;;;5081274;28;9822;-79
2021/11/17 16:41:30;;;;;;;;;2.25;2.25;;;;;;;;5080839;28;9547;-80
2021/11/17 16:43:58;;;;;;;;;2.00;2.00;;;;;;;;5077772;28;9525;-80
2021/11/17 16:46:26;;;;;;;;;4.00;2.50;;;;;;;;5081431;28;9736;-79
2021/11/17 16:48:54;;;;;;;;;1.00;1.00;;;;;;;;5083342;28;9642;-79
2021/11/17 16:51:23;;;;;;;;;2.00;2.00;;;;;;;;5079817;28;9642;-79
2021/11/17 16:53:51;;;;;;;;;2.50;2.50;;;;;;;;5078534;28;9693;-82
2021/11/17 16:56:18;;;;;;;;;2.00;2.00;;;;;;;;5078349;28;9934;-82
2021/11/17 16:58:46;;;;;;;;;2.00;2.00;;;;;;;;5081064;28;9897;-81
2021/11/17 17:01:15;;;;;;;;;2.00;2.00;;;;;;;;5078737;28;10029;-81
2021/11/17 17:03:45;;;;;;;;;6.00;4.00;;;;;;;;5080834;28;10180;-81
2021/11/17 17:06:16;;;;;;;;;5.50;3.00;;;;;;;;5080273;28;10104;-81
2021/11/17 17:08:44;;;;;;;;;3.50;3.50;;;;;;;;5080234;28;10110;-81
2021/11/17 17:11:13;;;;;;;;;1.00;1.00;;;;;;;;5080897;28;10216;-83
2021/11/17 17:13:41;;;;;;;;;5.00;5.00;;;;;;;;5083117;28;10076;-84
2021/11/17 17:16:10;;;;;;;;;5.00;5.00;;;;;;;;5080437;28;10180;-83
2021/11/17 17:18:37;;;;;;;;;4.00;4.00;;;;;;;;5077014;28;10449;-81
2021/11/17 17:21:08;;;;;;;;;3.00;3.00;;;;;;;;5081386;28;10347;-80
2021/11/17 17:23:40;;;;;;;;;6.00;3.50;;;;;;;;5079460;28;10288;-81
2021/11/17 17:26:10;;;;;;;;;3.00;3.00;;;;;;;;5083498;28;10333;-82
2021/11/17 17:28:37;;;;;;;;;4.50;4.50;;;;;;;;5084918;28;10515;-80
2021/11/17 17:31:07;;;;;;;;;5.00;5.00;;;;;;;;5079656;28;11168;-79
2021/11/17 17:33:36;;;;;;;;;6.25;5.75;;;;;;;;5112504;28;10526;-79
2021/11/17 17:36:05;;;;;;;;;3.50;3.50;;;;;;;;5087992;28;10495;-79
2021/11/17 17:38:33;;;;;;;;;6.75;5.00;;;;;;;;5091145;28;10493;-81
2021/11/17 17:41:01;;;;;;;;;7.00;7.00;;;;;;;;5095407;28;10535;-80
2021/11/17 17:43:30;;;;;;;;;3.00;3.00;;;;;;;;5078154;28;10589;-81
2021/11/17 17:45:58;;;;;;;;;5.25;5.25;;;;;;;;5091500;28;10643;-79
2021/11/17 17:48:25;;;;;;;;;5.00;5.00;;;;;;;;5081666;28;10740;-80